sensor_id;sensor_type;location;lat;lon;timestamp;P1;durP1;ratioP1;P2;durP2;ratioP2
7340;SDS011;6870;50.944;6.932;2024-01-07T00:00:49;6.70;;;4.47;;
7340;SDS011;6870;50.944;6.932;2024-01-07T00:03:17;6.53;;;5.07;;
7340;SDS011;6870;50.944;6.932;2024-01-07T00:05:45;6.30;;;4.93;;
7340;SDS011;6870;50.944;6.932;2024-01-07T00:08:13;6.40;;;4.53;;
7340;SDS011;6870;50.944;6.932;2024-01-07T00:10:42;6.47;;;4.63;;
7340;SDS011;6870;50.944;6.932;2024-01-07T00:13:11;7.00;;;4.47;;
7340;SDS011;6870;50.944;6.932;2024-01-07T00:15:39;5.87;;;4.40;;
7340;SDS011;6870;50.944;6.932;2024-01-07T00:18:07;6.60;;;5.03;;
7340;SDS011;6870;50.944;6.932;2024-01-07T00:20:35;5.70;;;4.23;;
7340;SDS011;6870;50.944;6.932;2024-01-07T00:23:04;5.27;;;4.43;;
7340;SDS011;6870;50.944;6.932;2024-01-07T00:25:32;5.10;;;4.10;;
7340;SDS011;6870;50.944;6.932;2024-01-07T00:28:00;5.13;;;3.97;;
7340;SDS011;6870;50.944;6.932;2024-01-07T00:30:29;5.80;;;4.30;;
7340;SDS011;6870;50.944;6.932;2024-01-07T00:32:57;6.10;;;4.33;;
7340;SDS011;6870;50.944;6.932;2024-01-07T00:35:25;8.30;;;4.90;;
7340;SDS011;6870;50.944;6.932;2024-01-07T00:37:53;6.40;;;4.20;;
7340;SDS011;6870;50.944;6.932;2024-01-07T00:40:22;5.13;;;4.43;;
7340;SDS011;6870;50.944;6.932;2024-01-07T00:42:50;5.10;;;4.27;;
7340;SDS011;6870;50.944;6.932;2024-01-07T00:45:18;5.60;;;3.80;;
7340;SDS011;6870;50.944;6.932;2024-01-07T00:47:49;4.60;;;3.90;;
7340;SDS011;6870;50.944;6.932;2024-01-07T00:50:18;4.17;;;3.77;;
7340;SDS011;6870;50.944;6.932;2024-01-07T00:52:45;4.70;;;4.20;;
7340;SDS011;6870;50.944;6.932;2024-01-07T00:55:13;6.00;;;3.80;;
7340;SDS011;6870;50.944;6.932;2024-01-07T00:57:41;5.10;;;4.23;;
7340;SDS011;6870;50.944;6.932;2024-01-07T01:00:10;6.00;;;4.33;;
7340;SDS011;6870;50.944;6.932;2024-01-07T01:02:42;6.20;;;4.87;;
7340;SDS011;6870;50.944;6.932;2024-01-07T01:05:12;6.20;;;4.27;;
7340;SDS011;6870;50.944;6.932;2024-01-07T01:07:40;5.90;;;4.20;;
7340;SDS011;6870;50.944;6.932;2024-01-07T01:10:09;7.00;;;4.13;;
7340;SDS011;6870;50.944;6.932;2024-01-07T01:12:49;5.70;;;4.50;;
7340;SDS011;6870;50.944;6.932;2024-01-07T01:15:20;6.60;;;4.50;;
7340;SDS011;6870;50.944;6.932;2024-01-07T01:17:48;5.77;;;4.40;;
7340;SDS011;6870;50.944;6.932;2024-01-07T01:20:17;5.83;;;4.03;;
7340;SDS011;6870;50.944;6.932;2024-01-07T01:22:45;9.13;;;4.23;;
7340;SDS011;6870;50.944;6.932;2024-01-07T01:25:13;7.40;;;3.97;;
7340;SDS011;6870;50.944;6.932;2024-01-07T01:27:42;6.77;;;4.67;;
7340;SDS011;6870;50.944;6.932;2024-01-07T01:30:11;7.73;;;4.50;;
7340;SDS011;6870;50.944;6.932;2024-01-07T01:32:39;7.10;;;4.80;;
7340;SDS011;6870;50.944;6.932;2024-01-07T01:35:09;4.00;;;3.20;;
7340;SDS011;6870;50.944;6.932;2024-01-07T01:37:38;4.37;;;3.93;;
7340;SDS011;6870;50.944;6.932;2024-01-07T01:40:06;5.07;;;4.17;;
7340;SDS011;6870;50.944;6.932;2024-01-07T01:42:36;4.77;;;3.40;;
7340;SDS011;6870;50.944;6.932;2024-01-07T01:45:05;3.80;;;3.50;;
7340;SDS011;6870;50.944;6.932;2024-01-07T01:47:34;4.50;;;3.90;;
7340;SDS011;6870;50.944;6.932;2024-01-07T01:50:02;4.17;;;3.73;;
7340;SDS011;6870;50.944;6.932;2024-01-07T01:52:32;5.33;;;3.90;;
7340;SDS011;6870;50.944;6.932;2024-01-07T01:55:03;6.77;;;3.63;;
7340;SDS011;6870;50.944;6.932;2024-01-07T01:57:32;4.77;;;3.70;;
7340;SDS011;6870;50.944;6.932;2024-01-07T02:00:02;4.87;;;3.23;;
7340;SDS011;6870;50.944;6.932;2024-01-07T02:02:31;5.97;;;3.80;;
7340;SDS011;6870;50.944;6.932;2024-01-07T02:05:00;4.03;;;3.57;;
7340;SDS011;6870;50.944;6.932;2024-01-07T02:07:29;7.50;;;3.90;;
7340;SDS011;6870;50.944;6.932;2024-01-07T02:09:59;3.70;;;3.40;;
7340;SDS011;6870;50.944;6.932;2024-01-07T02:12:28;5.50;;;3.93;;
7340;SDS011;6870;50.944;6.932;2024-01-07T02:14:57;5.00;;;3.80;;
7340;SDS011;6870;50.944;6.932;2024-01-07T02:17:25;5.43;;;3.40;;
7340;SDS011;6870;50.944;6.932;2024-01-07T02:19:54;4.90;;;3.60;;
7340;SDS011;6870;50.944;6.932;2024-01-07T02:22:22;5.10;;;3.63;;
7340;SDS011;6870;50.944;6.932;2024-01-07T02:24:52;5.00;;;3.37;;
7340;SDS011;6870;50.944;6.932;2024-01-07T02:27:20;4.57;;;3.50;;
7340;SDS011;6870;50.944;6.932;2024-01-07T02:29:48;4.07;;;3.63;;
7340;SDS011;6870;50.944;6.932;2024-01-07T02:32:16;4.20;;;3.40;;
7340;SDS011;6870;50.944;6.932;2024-01-07T02:34:44;5.60;;;3.33;;
7340;SDS011;6870;50.944;6.932;2024-01-07T02:37:13;4.70;;;3.30;;
7340;SDS011;6870;50.944;6.932;2024-01-07T02:39:41;4.70;;;3.20;;
7340;SDS011;6870;50.944;6.932;2024-01-07T02:42:22;6.80;;;3.53;;
7340;SDS011;6870;50.944;6.932;2024-01-07T02:44:50;3.70;;;3.33;;
7340;SDS011;6870;50.944;6.932;2024-01-07T02:47:18;4.20;;;3.43;;
7340;SDS011;6870;50.944;6.932;2024-01-07T02:49:46;5.40;;;3.17;;
7340;SDS011;6870;50.944;6.932;2024-01-07T02:52:14;3.90;;;3.50;;
7340;SDS011;6870;50.944;6.932;2024-01-07T02:54:42;4.40;;;3.57;;
7340;SDS011;6870;50.944;6.932;2024-01-07T02:57:10;5.63;;;3.00;;
7340;SDS011;6870;50.944;6.932;2024-01-07T02:59:40;5.30;;;3.70;;
7340;SDS011;6870;50.944;6.932;2024-01-07T03:02:08;4.10;;;3.67;;
7340;SDS011;6870;50.944;6.932;2024-01-07T03:04:36;4.10;;;3.07;;
7340;SDS011;6870;50.944;6.932;2024-01-07T03:07:04;3.67;;;2.93;;
7340;SDS011;6870;50.944;6.932;2024-01-07T03:09:32;3.90;;;3.40;;
7340;SDS011;6870;50.944;6.932;2024-01-07T03:12:00;4.47;;;3.33;;
7340;SDS011;6870;50.944;6.932;2024-01-07T03:14:28;5.43;;;3.60;;
7340;SDS011;6870;50.944;6.932;2024-01-07T03:16:58;4.60;;;3.43;;
7340;SDS011;6870;50.944;6.932;2024-01-07T03:19:26;3.40;;;3.03;;
7340;SDS011;6870;50.944;6.932;2024-01-07T03:21:54;3.47;;;3.17;;
7340;SDS011;6870;50.944;6.932;2024-01-07T03:24:22;4.30;;;3.60;;
7340;SDS011;6870;50.944;6.932;2024-01-07T03:26:50;3.63;;;3.20;;
7340;SDS011;6870;50.944;6.932;2024-01-07T03:29:18;3.07;;;2.60;;
7340;SDS011;6870;50.944;6.932;2024-01-07T03:31:46;3.20;;;2.90;;
7340;SDS011;6870;50.944;6.932;2024-01-07T03:34:15;3.83;;;3.27;;
7340;SDS011;6870;50.944;6.932;2024-01-07T03:36:43;4.03;;;3.30;;
7340;SDS011;6870;50.944;6.932;2024-01-07T03:39:11;4.87;;;3.23;;
7340;SDS011;6870;50.944;6.932;2024-01-07T03:41:39;4.13;;;3.27;;
7340;SDS011;6870;50.944;6.932;2024-01-07T03:44:07;3.67;;;2.93;;
7340;SDS011;6870;50.944;6.932;2024-01-07T03:46:36;3.87;;;3.50;;
7340;SDS011;6870;50.944;6.932;2024-01-07T03:49:04;4.33;;;3.30;;
7340;SDS011;6870;50.944;6.932;2024-01-07T03:51:33;4.00;;;3.23;;
7340;SDS011;6870;50.944;6.932;2024-01-07T03:54:01;5.03;;;3.47;;
7340;SDS011;6870;50.944;6.932;2024-01-07T03:56:29;3.53;;;2.80;;
7340;SDS011;6870;50.944;6.932;2024-01-07T03:58:57;3.50;;;2.90;;
7340;SDS011;6870;50.944;6.932;2024-01-07T04:01:25;3.37;;;2.70;;
7340;SDS011;6870;50.944;6.932;2024-01-07T04:03:53;3.33;;;2.53;;
7340;SDS011;6870;50.944;6.932;2024-01-07T04:06:22;3.97;;;2.57;;
7340;SDS011;6870;50.944;6.932;2024-01-07T04:08:51;3.90;;;2.97;;
7340;SDS011;6870;50.944;6.932;2024-01-07T04:11:19;3.40;;;2.73;;
7340;SDS011;6870;50.944;6.932;2024-01-07T04:13:47;3.37;;;3.07;;
7340;SDS011;6870;50.944;6.932;2024-01-07T04:16:16;3.43;;;3.13;;
7340;SDS011;6870;50.944;6.932;2024-01-07T04:18:44;3.57;;;3.23;;
7340;SDS011;6870;50.944;6.932;2024-01-07T04:21:19;3.87;;;3.00;;
7340;SDS011;6870;50.944;6.932;2024-01-07T04:23:47;2.73;;;2.53;;
7340;SDS011;6870;50.944;6.932;2024-01-07T04:26:16;3.30;;;2.90;;
7340;SDS011;6870;50.944;6.932;2024-01-07T04:28:47;3.33;;;2.67;;
7340;SDS011;6870;50.944;6.932;2024-01-07T04:31:15;2.63;;;2.43;;
7340;SDS011;6870;50.944;6.932;2024-01-07T04:33:43;2.13;;;1.93;;
7340;SDS011;6870;50.944;6.932;2024-01-07T04:36:11;4.10;;;3.07;;
7340;SDS011;6870;50.944;6.932;2024-01-07T04:38:39;3.10;;;2.80;;
7340;SDS011;6870;50.944;6.932;2024-01-07T04:41:07;3.50;;;2.83;;
7340;SDS011;6870;50.944;6.932;2024-01-07T04:43:37;2.57;;;2.37;;
7340;SDS011;6870;50.944;6.932;2024-01-07T04:46:05;3.60;;;2.90;;
7340;SDS011;6870;50.944;6.932;2024-01-07T04:48:33;2.77;;;2.53;;
7340;SDS011;6870;50.944;6.932;2024-01-07T04:51:01;3.83;;;3.00;;
7340;SDS011;6870;50.944;6.932;2024-01-07T04:53:29;3.10;;;2.80;;
7340;SDS011;6870;50.944;6.932;2024-01-07T04:55:57;3.50;;;2.90;;
7340;SDS011;6870;50.944;6.932;2024-01-07T04:58:25;3.40;;;2.57;;
7340;SDS011;6870;50.944;6.932;2024-01-07T05:00:55;3.00;;;2.30;;
7340;SDS011;6870;50.944;6.932;2024-01-07T05:03:23;3.37;;;2.40;;
7340;SDS011;6870;50.944;6.932;2024-01-07T05:05:52;2.50;;;2.20;;
7340;SDS011;6870;50.944;6.932;2024-01-07T05:08:21;2.80;;;2.33;;
7340;SDS011;6870;50.944;6.932;2024-01-07T05:10:52;3.37;;;2.50;;
7340;SDS011;6870;50.944;6.932;2024-01-07T05:13:20;3.20;;;2.90;;
7340;SDS011;6870;50.944;6.932;2024-01-07T05:15:48;2.53;;;2.03;;
7340;SDS011;6870;50.944;6.932;2024-01-07T05:18:21;4.53;;;2.83;;
7340;SDS011;6870;50.944;6.932;2024-01-07T05:20:51;3.00;;;2.70;;
7340;SDS011;6870;50.944;6.932;2024-01-07T05:23:19;4.30;;;2.70;;
7340;SDS011;6870;50.944;6.932;2024-01-07T05:25:47;2.80;;;2.27;;
7340;SDS011;6870;50.944;6.932;2024-01-07T05:28:15;2.63;;;2.33;;
7340;SDS011;6870;50.944;6.932;2024-01-07T05:30:45;2.80;;;2.47;;
7340;SDS011;6870;50.944;6.932;2024-01-07T05:33:13;3.50;;;2.57;;
7340;SDS011;6870;50.944;6.932;2024-01-07T05:35:43;2.43;;;2.20;;
7340;SDS011;6870;50.944;6.932;2024-01-07T05:38:11;2.60;;;2.20;;
7340;SDS011;6870;50.944;6.932;2024-01-07T05:40:39;2.60;;;2.40;;
7340;SDS011;6870;50.944;6.932;2024-01-07T05:43:07;2.63;;;2.23;;
7340;SDS011;6870;50.944;6.932;2024-01-07T05:45:35;2.90;;;2.60;;
7340;SDS011;6870;50.944;6.932;2024-01-07T05:48:03;3.17;;;2.80;;
7340;SDS011;6870;50.944;6.932;2024-01-07T05:50:32;3.20;;;2.50;;
7340;SDS011;6870;50.944;6.932;2024-01-07T05:53:02;2.00;;;1.80;;
7340;SDS011;6870;50.944;6.932;2024-01-07T05:55:30;2.43;;;2.20;;
7340;SDS011;6870;50.944;6.932;2024-01-07T05:57:58;2.30;;;1.67;;
7340;SDS011;6870;50.944;6.932;2024-01-07T06:00:26;3.57;;;2.10;;
7340;SDS011;6870;50.944;6.932;2024-01-07T06:02:54;3.83;;;2.83;;
7340;SDS011;6870;50.944;6.932;2024-01-07T06:05:22;3.63;;;2.70;;
7340;SDS011;6870;50.944;6.932;2024-01-07T06:07:51;3.00;;;2.33;;
7340;SDS011;6870;50.944;6.932;2024-01-07T06:10:20;2.80;;;2.27;;
7340;SDS011;6870;50.944;6.932;2024-01-07T06:12:48;2.80;;;2.50;;
7340;SDS011;6870;50.944;6.932;2024-01-07T06:15:16;3.07;;;2.40;;
7340;SDS011;6870;50.944;6.932;2024-01-07T06:17:44;2.67;;;2.30;;
7340;SDS011;6870;50.944;6.932;2024-01-07T06:20:12;3.23;;;2.57;;
7340;SDS011;6870;50.944;6.932;2024-01-07T06:22:41;3.23;;;2.70;;
7340;SDS011;6870;50.944;6.932;2024-01-07T06:25:14;3.07;;;2.20;;
7340;SDS011;6870;50.944;6.932;2024-01-07T06:27:44;2.57;;;2.27;;
7340;SDS011;6870;50.944;6.932;2024-01-07T06:30:12;3.27;;;2.70;;
7340;SDS011;6870;50.944;6.932;2024-01-07T06:32:43;3.20;;;2.20;;
7340;SDS011;6870;50.944;6.932;2024-01-07T06:35:11;2.00;;;1.80;;
7340;SDS011;6870;50.944;6.932;2024-01-07T06:37:41;2.93;;;2.10;;
7340;SDS011;6870;50.944;6.932;2024-01-07T06:40:10;2.37;;;2.17;;
7340;SDS011;6870;50.944;6.932;2024-01-07T06:42:39;2.80;;;2.30;;
7340;SDS011;6870;50.944;6.932;2024-01-07T06:45:09;2.37;;;1.97;;
7340;SDS011;6870;50.944;6.932;2024-01-07T06:47:37;2.47;;;1.97;;
7340;SDS011;6870;50.944;6.932;2024-01-07T06:50:05;2.50;;;2.30;;
7340;SDS011;6870;50.944;6.932;2024-01-07T06:52:34;3.00;;;2.27;;
7340;SDS011;6870;50.944;6.932;2024-01-07T06:55:02;2.70;;;2.40;;
7340;SDS011;6870;50.944;6.932;2024-01-07T06:57:30;5.83;;;2.40;;
7340;SDS011;6870;50.944;6.932;2024-01-07T06:59:59;2.60;;;2.10;;
7340;SDS011;6870;50.944;6.932;2024-01-07T07:02:28;2.33;;;1.73;;
7340;SDS011;6870;50.944;6.932;2024-01-07T07:04:56;3.00;;;2.07;;
7340;SDS011;6870;50.944;6.932;2024-01-07T07:07:25;2.00;;;1.80;;
7340;SDS011;6870;50.944;6.932;2024-01-07T07:09:53;2.30;;;1.70;;
7340;SDS011;6870;50.944;6.932;2024-01-07T07:12:21;2.67;;;1.93;;
7340;SDS011;6870;50.944;6.932;2024-01-07T07:14:49;2.30;;;1.97;;
7340;SDS011;6870;50.944;6.932;2024-01-07T07:17:17;2.93;;;2.20;;
7340;SDS011;6870;50.944;6.932;2024-01-07T07:19:46;2.13;;;1.93;;
7340;SDS011;6870;50.944;6.932;2024-01-07T07:22:15;3.30;;;2.80;;
7340;SDS011;6870;50.944;6.932;2024-01-07T07:24:43;2.40;;;1.90;;
7340;SDS011;6870;50.944;6.932;2024-01-07T07:27:11;3.10;;;2.20;;
7340;SDS011;6870;50.944;6.932;2024-01-07T07:29:39;8.57;;;2.83;;
7340;SDS011;6870;50.944;6.932;2024-01-07T07:32:07;3.57;;;2.43;;
7340;SDS011;6870;50.944;6.932;2024-01-07T07:34:35;3.20;;;2.47;;
7340;SDS011;6870;50.944;6.932;2024-01-07T07:37:05;3.83;;;2.27;;
7340;SDS011;6870;50.944;6.932;2024-01-07T07:39:33;2.73;;;2.20;;
7340;SDS011;6870;50.944;6.932;2024-01-07T07:42:01;3.00;;;2.17;;
7340;SDS011;6870;50.944;6.932;2024-01-07T07:44:29;3.30;;;2.67;;
7340;SDS011;6870;50.944;6.932;2024-01-07T07:46:58;3.07;;;2.40;;
7340;SDS011;6870;50.944;6.932;2024-01-07T07:49:27;2.63;;;2.20;;
7340;SDS011;6870;50.944;6.932;2024-01-07T07:51:55;2.73;;;2.13;;
7340;SDS011;6870;50.944;6.932;2024-01-07T07:54:25;6.20;;;2.37;;
7340;SDS011;6870;50.944;6.932;2024-01-07T07:56:53;6.33;;;2.50;;
7340;SDS011;6870;50.944;6.932;2024-01-07T07:59:21;5.27;;;2.97;;
7340;SDS011;6870;50.944;6.932;2024-01-07T08:01:55;3.47;;;2.37;;
7340;SDS011;6870;50.944;6.932;2024-01-07T08:04:26;5.83;;;2.40;;
7340;SDS011;6870;50.944;6.932;2024-01-07T08:06:55;3.87;;;2.53;;
7340;SDS011;6870;50.944;6.932;2024-01-07T08:09:23;2.60;;;2.20;;
7340;SDS011;6870;50.944;6.932;2024-01-07T08:11:53;4.20;;;2.50;;
7340;SDS011;6870;50.944;6.932;2024-01-07T08:14:21;2.83;;;2.00;;
7340;SDS011;6870;50.944;6.932;2024-01-07T08:16:49;2.00;;;1.73;;
7340;SDS011;6870;50.944;6.932;2024-01-07T08:19:17;2.60;;;2.23;;
7340;SDS011;6870;50.944;6.932;2024-01-07T08:21:46;3.50;;;2.00;;
7340;SDS011;6870;50.944;6.932;2024-01-07T08:24:14;2.20;;;1.80;;
7340;SDS011;6870;50.944;6.932;2024-01-07T08:26:42;2.50;;;2.30;;
7340;SDS011;6870;50.944;6.932;2024-01-07T08:29:12;2.70;;;1.73;;
7340;SDS011;6870;50.944;6.932;2024-01-07T08:31:40;4.57;;;2.17;;
7340;SDS011;6870;50.944;6.932;2024-01-07T08:34:09;2.50;;;1.90;;
7340;SDS011;6870;50.944;6.932;2024-01-07T08:36:37;4.03;;;2.20;;
7340;SDS011;6870;50.944;6.932;2024-01-07T08:39:17;2.23;;;1.77;;
7340;SDS011;6870;50.944;6.932;2024-01-07T08:41:55;2.27;;;1.80;;
7340;SDS011;6870;50.944;6.932;2024-01-07T08:44:25;3.57;;;1.90;;
7340;SDS011;6870;50.944;6.932;2024-01-07T08:46:53;4.20;;;2.20;;
7340;SDS011;6870;50.944;6.932;2024-01-07T08:49:21;2.23;;;1.93;;
7340;SDS011;6870;50.944;6.932;2024-01-07T08:51:49;3.20;;;2.40;;
7340;SDS011;6870;50.944;6.932;2024-01-07T08:54:17;2.60;;;1.93;;
7340;SDS011;6870;50.944;6.932;2024-01-07T08:56:45;2.40;;;2.20;;
7340;SDS011;6870;50.944;6.932;2024-01-07T08:59:13;2.33;;;2.13;;
7340;SDS011;6870;50.944;6.932;2024-01-07T09:01:42;3.20;;;2.00;;
7340;SDS011;6870;50.944;6.932;2024-01-07T09:04:10;2.90;;;1.90;;
7340;SDS011;6870;50.944;6.932;2024-01-07T09:06:39;2.17;;;1.97;;
7340;SDS011;6870;50.944;6.932;2024-01-07T09:09:07;2.50;;;1.73;;
7340;SDS011;6870;50.944;6.932;2024-01-07T09:11:35;2.67;;;2.20;;
7340;SDS011;6870;50.944;6.932;2024-01-07T09:14:03;3.00;;;2.10;;
7340;SDS011;6870;50.944;6.932;2024-01-07T09:16:32;2.00;;;1.40;;
7340;SDS011;6870;50.944;6.932;2024-01-07T09:19:01;3.70;;;1.97;;
7340;SDS011;6870;50.944;6.932;2024-01-07T09:21:29;5.30;;;3.17;;
7340;SDS011;6870;50.944;6.932;2024-01-07T09:23:57;4.23;;;3.80;;
7340;SDS011;6870;50.944;6.932;2024-01-07T09:26:25;5.83;;;2.80;;
7340;SDS011;6870;50.944;6.932;2024-01-07T09:28:54;3.33;;;2.50;;
7340;SDS011;6870;50.944;6.932;2024-01-07T09:31:22;8.00;;;3.10;;
7340;SDS011;6870;50.944;6.932;2024-01-07T09:33:51;6.50;;;2.33;;
7340;SDS011;6870;50.944;6.932;2024-01-07T09:36:20;4.80;;;2.70;;
7340;SDS011;6870;50.944;6.932;2024-01-07T09:38:56;4.87;;;2.90;;
7340;SDS011;6870;50.944;6.932;2024-01-07T09:41:24;7.53;;;3.00;;
7340;SDS011;6870;50.944;6.932;2024-01-07T09:43:52;2.60;;;2.13;;
7340;SDS011;6870;50.944;6.932;2024-01-07T09:46:23;3.30;;;2.20;;
7340;SDS011;6870;50.944;6.932;2024-01-07T09:48:52;5.47;;;2.63;;
7340;SDS011;6870;50.944;6.932;2024-01-07T09:51:22;5.57;;;3.03;;
7340;SDS011;6870;50.944;6.932;2024-01-07T09:53:50;3.23;;;2.53;;
7340;SDS011;6870;50.944;6.932;2024-01-07T09:56:25;3.03;;;2.10;;
7340;SDS011;6870;50.944;6.932;2024-01-07T09:58:56;4.47;;;2.77;;
7340;SDS011;6870;50.944;6.932;2024-01-07T10:01:24;3.93;;;2.03;;
7340;SDS011;6870;50.944;6.932;2024-01-07T10:03:53;2.73;;;2.27;;
7340;SDS011;6870;50.944;6.932;2024-01-07T10:06:24;9.70;;;2.60;;
7340;SDS011;6870;50.944;6.932;2024-01-07T10:08:53;3.77;;;2.37;;
7340;SDS011;6870;50.944;6.932;2024-01-07T10:11:21;3.00;;;2.17;;
7340;SDS011;6870;50.944;6.932;2024-01-07T10:13:49;3.40;;;2.03;;
7340;SDS011;6870;50.944;6.932;2024-01-07T10:16:18;2.83;;;2.37;;
7340;SDS011;6870;50.944;6.932;2024-01-07T10:18:46;3.93;;;2.00;;
7340;SDS011;6870;50.944;6.932;2024-01-07T10:21:14;3.30;;;2.63;;
7340;SDS011;6870;50.944;6.932;2024-01-07T10:23:44;3.40;;;2.60;;
7340;SDS011;6870;50.944;6.932;2024-01-07T10:26:12;3.37;;;2.30;;
7340;SDS011;6870;50.944;6.932;2024-01-07T10:28:56;3.83;;;2.30;;
7340;SDS011;6870;50.944;6.932;2024-01-07T10:31:24;3.53;;;1.80;;
7340;SDS011;6870;50.944;6.932;2024-01-07T10:33:53;2.77;;;2.03;;
7340;SDS011;6870;50.944;6.932;2024-01-07T10:36:23;3.83;;;2.37;;
7340;SDS011;6870;50.944;6.932;2024-01-07T10:38:53;3.50;;;2.27;;
7340;SDS011;6870;50.944;6.932;2024-01-07T10:41:22;2.60;;;2.13;;
7340;SDS011;6870;50.944;6.932;2024-01-07T10:43:52;2.47;;;1.90;;
7340;SDS011;6870;50.944;6.932;2024-01-07T10:46:20;4.13;;;2.13;;
7340;SDS011;6870;50.944;6.932;2024-01-07T10:48:51;24.70;;;3.87;;
7340;SDS011;6870;50.944;6.932;2024-01-07T10:51:23;27.70;;;5.53;;
7340;SDS011;6870;50.944;6.932;2024-01-07T10:53:56;16.50;;;4.93;;
7340;SDS011;6870;50.944;6.932;2024-01-07T10:56:25;18.70;;;5.27;;
7340;SDS011;6870;50.944;6.932;2024-01-07T10:59:02;9.30;;;4.57;;
7340;SDS011;6870;50.944;6.932;2024-01-07T11:01:31;17.23;;;4.37;;
7340;SDS011;6870;50.944;6.932;2024-01-07T11:04:01;25.80;;;4.03;;
7340;SDS011;6870;50.944;6.932;2024-01-07T11:06:36;14.60;;;3.77;;
7340;SDS011;6870;50.944;6.932;2024-01-07T11:09:14;7.73;;;3.83;;
7340;SDS011;6870;50.944;6.932;2024-01-07T11:11:47;14.07;;;3.67;;
7340;SDS011;6870;50.944;6.932;2024-01-07T11:20:12;6.03;;;2.97;;
7340;SDS011;6870;50.944;6.932;2024-01-07T11:22:53;10.77;;;3.80;;
7340;SDS011;6870;50.944;6.932;2024-01-07T11:25:55;7.57;;;3.57;;
7340;SDS011;6870;50.944;6.932;2024-01-07T11:28:42;6.00;;;3.73;;
7340;SDS011;6870;50.944;6.932;2024-01-07T11:31:15;9.23;;;4.07;;
7340;SDS011;6870;50.944;6.932;2024-01-07T11:33:46;8.10;;;3.87;;
7340;SDS011;6870;50.944;6.932;2024-01-07T11:36:15;9.77;;;4.40;;
7340;SDS011;6870;50.944;6.932;2024-01-07T11:38:44;13.47;;;4.80;;
7340;SDS011;6870;50.944;6.932;2024-01-07T11:41:21;9.00;;;4.17;;
7340;SDS011;6870;50.944;6.932;2024-01-07T11:43:52;8.93;;;5.17;;
7340;SDS011;6870;50.944;6.932;2024-01-07T11:46:21;10.43;;;4.87;;
7340;SDS011;6870;50.944;6.932;2024-01-07T11:48:52;6.93;;;4.33;;
7340;SDS011;6870;50.944;6.932;2024-01-07T11:51:25;9.33;;;4.30;;
7340;SDS011;6870;50.944;6.932;2024-01-07T11:53:53;16.57;;;4.20;;
7340;SDS011;6870;50.944;6.932;2024-01-07T11:56:23;8.93;;;5.27;;
7340;SDS011;6870;50.944;6.932;2024-01-07T11:58:52;9.17;;;4.43;;
7340;SDS011;6870;50.944;6.932;2024-01-07T12:01:20;7.13;;;4.47;;
7340;SDS011;6870;50.944;6.932;2024-01-07T12:03:48;9.53;;;5.10;;
7340;SDS011;6870;50.944;6.932;2024-01-07T12:06:16;11.70;;;5.37;;
7340;SDS011;6870;50.944;6.932;2024-01-07T12:08:46;9.73;;;5.07;;
7340;SDS011;6870;50.944;6.932;2024-01-07T12:11:14;8.33;;;5.13;;
7340;SDS011;6870;50.944;6.932;2024-01-07T12:13:45;11.70;;;5.97;;
7340;SDS011;6870;50.944;6.932;2024-01-07T12:16:13;10.30;;;5.27;;
7340;SDS011;6870;50.944;6.932;2024-01-07T12:18:42;10.97;;;5.90;;
7340;SDS011;6870;50.944;6.932;2024-01-07T12:21:10;12.20;;;5.73;;
7340;SDS011;6870;50.944;6.932;2024-01-07T12:23:38;16.20;;;6.13;;
7340;SDS011;6870;50.944;6.932;2024-01-07T12:26:10;11.00;;;5.67;;
7340;SDS011;6870;50.944;6.932;2024-01-07T12:28:39;8.30;;;5.03;;
7340;SDS011;6870;50.944;6.932;2024-01-07T12:31:08;10.63;;;5.03;;
7340;SDS011;6870;50.944;6.932;2024-01-07T12:33:37;12.77;;;6.07;;
7340;SDS011;6870;50.944;6.932;2024-01-07T12:36:06;11.40;;;6.40;;
7340;SDS011;6870;50.944;6.932;2024-01-07T12:38:36;8.73;;;6.00;;
7340;SDS011;6870;50.944;6.932;2024-01-07T12:41:05;16.53;;;6.63;;
7340;SDS011;6870;50.944;6.932;2024-01-07T12:43:33;8.47;;;5.57;;
7340;SDS011;6870;50.944;6.932;2024-01-07T12:46:01;12.40;;;6.80;;
7340;SDS011;6870;50.944;6.932;2024-01-07T12:48:33;10.53;;;6.63;;
7340;SDS011;6870;50.944;6.932;2024-01-07T12:51:02;12.80;;;7.63;;
7340;SDS011;6870;50.944;6.932;2024-01-07T12:53:30;12.10;;;7.30;;
7340;SDS011;6870;50.944;6.932;2024-01-07T12:55:58;8.30;;;6.20;;
7340;SDS011;6870;50.944;6.932;2024-01-07T12:58:26;15.13;;;7.87;;
7340;SDS011;6870;50.944;6.932;2024-01-07T13:00:55;18.00;;;7.17;;
7340;SDS011;6870;50.944;6.932;2024-01-07T13:03:30;10.80;;;6.53;;
7340;SDS011;6870;50.944;6.932;2024-01-07T13:05:59;11.53;;;6.70;;
7340;SDS011;6870;50.944;6.932;2024-01-07T13:08:28;8.73;;;6.63;;
7340;SDS011;6870;50.944;6.932;2024-01-07T13:10:56;15.43;;;7.13;;
7340;SDS011;6870;50.944;6.932;2024-01-07T13:13:25;15.13;;;6.50;;
7340;SDS011;6870;50.944;6.932;2024-01-07T13:15:54;10.50;;;6.33;;
7340;SDS011;6870;50.944;6.932;2024-01-07T13:18:23;7.80;;;5.97;;
7340;SDS011;6870;50.944;6.932;2024-01-07T13:20:52;9.77;;;5.60;;
7340;SDS011;6870;50.944;6.932;2024-01-07T13:23:21;11.40;;;5.70;;
7340;SDS011;6870;50.944;6.932;2024-01-07T13:25:49;11.67;;;6.57;;
7340;SDS011;6870;50.944;6.932;2024-01-07T13:28:17;6.03;;;5.10;;
7340;SDS011;6870;50.944;6.932;2024-01-07T13:30:46;9.87;;;6.43;;
7340;SDS011;6870;50.944;6.932;2024-01-07T13:33:14;9.10;;;6.27;;
7340;SDS011;6870;50.944;6.932;2024-01-07T13:35:44;10.33;;;6.47;;
7340;SDS011;6870;50.944;6.932;2024-01-07T13:38:12;11.40;;;5.30;;
7340;SDS011;6870;50.944;6.932;2024-01-07T13:40:42;8.20;;;4.90;;
7340;SDS011;6870;50.944;6.932;2024-01-07T13:43:09;8.07;;;6.30;;
7340;SDS011;6870;50.944;6.932;2024-01-07T13:45:39;6.30;;;5.43;;
7340;SDS011;6870;50.944;6.932;2024-01-07T13:48:07;8.87;;;5.53;;
7340;SDS011;6870;50.944;6.932;2024-01-07T13:50:36;8.53;;;5.47;;
7340;SDS011;6870;50.944;6.932;2024-01-07T13:53:04;7.27;;;5.50;;
7340;SDS011;6870;50.944;6.932;2024-01-07T13:55:32;7.43;;;6.50;;
7340;SDS011;6870;50.944;6.932;2024-01-07T13:58:01;7.30;;;5.37;;
7340;SDS011;6870;50.944;6.932;2024-01-07T14:00:30;8.73;;;6.10;;
7340;SDS011;6870;50.944;6.932;2024-01-07T14:02:59;8.50;;;5.50;;
7340;SDS011;6870;50.944;6.932;2024-01-07T14:05:27;10.23;;;5.80;;
7340;SDS011;6870;50.944;6.932;2024-01-07T14:07:55;9.47;;;5.73;;
7340;SDS011;6870;50.944;6.932;2024-01-07T14:10:24;7.70;;;5.17;;
7340;SDS011;6870;50.944;6.932;2024-01-07T14:12:52;10.10;;;5.73;;
7340;SDS011;6870;50.944;6.932;2024-01-07T14:15:21;10.33;;;6.57;;
7340;SDS011;6870;50.944;6.932;2024-01-07T14:17:50;6.97;;;5.10;;
7340;SDS011;6870;50.944;6.932;2024-01-07T14:20:18;8.90;;;5.60;;
7340;SDS011;6870;50.944;6.932;2024-01-07T14:22:47;7.27;;;5.30;;
7340;SDS011;6870;50.944;6.932;2024-01-07T14:25:15;8.20;;;4.93;;
7340;SDS011;6870;50.944;6.932;2024-01-07T14:27:43;8.47;;;5.50;;
7340;SDS011;6870;50.944;6.932;2024-01-07T14:30:12;8.83;;;5.50;;
7340;SDS011;6870;50.944;6.932;2024-01-07T14:32:42;5.97;;;4.77;;
7340;SDS011;6870;50.944;6.932;2024-01-07T14:35:11;6.40;;;5.80;;
7340;SDS011;6870;50.944;6.932;2024-01-07T14:37:39;5.67;;;5.07;;
7340;SDS011;6870;50.944;6.932;2024-01-07T14:40:07;6.50;;;5.00;;
7340;SDS011;6870;50.944;6.932;2024-01-07T14:42:36;6.07;;;4.80;;
7340;SDS011;6870;50.944;6.932;2024-01-07T14:45:05;5.90;;;5.30;;
7340;SDS011;6870;50.944;6.932;2024-01-07T14:47:33;7.00;;;4.93;;
7340;SDS011;6870;50.944;6.932;2024-01-07T14:50:03;6.70;;;5.77;;
7340;SDS011;6870;50.944;6.932;2024-01-07T14:52:34;8.73;;;5.50;;
7340;SDS011;6870;50.944;6.932;2024-01-07T14:55:02;6.23;;;5.00;;
7340;SDS011;6870;50.944;6.932;2024-01-07T14:57:30;6.10;;;5.33;;
7340;SDS011;6870;50.944;6.932;2024-01-07T14:59:58;6.70;;;5.57;;
7340;SDS011;6870;50.944;6.932;2024-01-07T15:02:27;6.27;;;5.30;;
7340;SDS011;6870;50.944;6.932;2024-01-07T15:04:55;6.80;;;4.67;;
7340;SDS011;6870;50.944;6.932;2024-01-07T15:07:25;7.07;;;5.57;;
7340;SDS011;6870;50.944;6.932;2024-01-07T15:09:53;5.83;;;4.63;;
7340;SDS011;6870;50.944;6.932;2024-01-07T15:12:21;4.83;;;4.40;;
7340;SDS011;6870;50.944;6.932;2024-01-07T15:14:49;5.90;;;4.67;;
7340;SDS011;6870;50.944;6.932;2024-01-07T15:17:17;7.10;;;4.67;;
7340;SDS011;6870;50.944;6.932;2024-01-07T15:19:46;5.43;;;4.30;;
7340;SDS011;6870;50.944;6.932;2024-01-07T15:22:14;4.53;;;4.00;;
7340;SDS011;6870;50.944;6.932;2024-01-07T15:24:44;5.87;;;4.33;;
7340;SDS011;6870;50.944;6.932;2024-01-07T15:27:12;6.40;;;5.23;;
7340;SDS011;6870;50.944;6.932;2024-01-07T15:29:40;8.20;;;4.63;;
7340;SDS011;6870;50.944;6.932;2024-01-07T15:32:08;5.10;;;4.57;;